TRA052 LFBO-EHAM
Flight info
| Callsign | TRA052 |
|---|---|
| Flight time | N/A |
| Altitude | 36000 |
| Route | FISTO DCT PERIG DCT ADABI DCT BOKNO UN858 VANAD UN874 BAMES UT191 PODEM UN873 BAZOS DCT LUMIL DCT BELOB UY873 DENUT |
| Aircraft | A21N/M-SBDE2E3FGHIJ1J5M1P2RWXYZ/LB1D1G1 |
Departure
| Time | 2026-05-07 17:36 |
|---|---|
| Airport | Toulouse-Blagnac Airport (LFBO) |
Arrival
| Time | N/A |
|---|---|
| Airport | Amsterdam Airport Schiphol (EHAM) |
| Time | Latitude | Longitude | Altitude | Speed | Heading |
|---|---|---|---|---|---|
| 2026-05-07 17:16 | 43.63363 | 1.35024 | 499 ft | 0 kts | 230° |
| 2026-05-07 17:25 | 43.63372 | 1.35039 | 499 ft | 4 kts | 233° |
| 2026-05-07 17:26 | 43.63388 | 1.35069 | 499 ft | 4 kts | 232° |
| 2026-05-07 17:26 | 43.63406 | 1.35094 | 499 ft | 4 kts | 210° |
| 2026-05-07 17:26 | 43.63430 | 1.35105 | 499 ft | 4 kts | 174° |
| 2026-05-07 17:26 | 43.63448 | 1.35096 | 499 ft | 1 kts | 143° |
| 2026-05-07 17:27 | 43.63450 | 1.35093 | 499 ft | 0 kts | 143° |
| 2026-05-07 17:30 | 43.63438 | 1.35106 | 499 ft | 5 kts | 143° |
| 2026-05-07 17:31 | 43.63399 | 1.35147 | 499 ft | 9 kts | 143° |
| 2026-05-07 17:31 | 43.63335 | 1.35214 | 499 ft | 14 kts | 143° |
| 2026-05-07 17:31 | 43.63248 | 1.35305 | 499 ft | 18 kts | 142° |
| 2026-05-07 17:31 | 43.63141 | 1.35417 | 499 ft | 21 kts | 144° |
| 2026-05-07 17:32 | 43.63023 | 1.35487 | 499 ft | 15 kts | 173° |
| 2026-05-07 17:32 | 43.62968 | 1.35593 | 499 ft | 18 kts | 79° |
| 2026-05-07 17:32 | 43.62970 | 1.35772 | 499 ft | 21 kts | 125° |
| 2026-05-07 17:32 | 43.62893 | 1.35862 | 499 ft | 22 kts | 144° |
| 2026-05-07 17:33 | 43.62714 | 1.36046 | 499 ft | 26 kts | 143° |
| 2026-05-07 17:33 | 43.62565 | 1.36203 | 499 ft | 28 kts | 142° |
| 2026-05-07 17:33 | 43.62408 | 1.36368 | 499 ft | 26 kts | 143° |
| 2026-05-07 17:33 | 43.62287 | 1.36493 | 499 ft | 21 kts | 143° |
| 2026-05-07 17:34 | 43.62160 | 1.36624 | 499 ft | 24 kts | 143° |
| 2026-05-07 17:34 | 43.62020 | 1.36768 | 499 ft | 25 kts | 143° |
| 2026-05-07 17:34 | 43.61937 | 1.36861 | 499 ft | 16 kts | 123° |
| 2026-05-07 17:34 | 43.61961 | 1.37009 | 499 ft | 18 kts | 55° |
| 2026-05-07 17:35 | 43.62012 | 1.37074 | 499 ft | 9 kts | 1° |
| 2026-05-07 17:35 | 43.62088 | 1.37011 | 499 ft | 32 kts | 323° |
| 2026-05-07 17:35 | 43.62549 | 1.36534 | 499 ft | 126 kts | 323° |
| 2026-05-07 17:35 | 43.63407 | 1.35622 | 720 ft | 169 kts | 322° |
| 2026-05-07 17:36 | 43.64337 | 1.34612 | 1570 ft | 172 kts | 322° |
| 2026-05-07 17:36 | 43.65320 | 1.33574 | 2407 ft | 187 kts | 323° |
| 2026-05-07 17:36 | 43.66421 | 1.32450 | 3199 ft | 208 kts | 324° |
| 2026-05-07 17:36 | 43.67683 | 1.31149 | 3917 ft | 245 kts | 324° |
| 2026-05-07 17:37 | 43.69109 | 1.29673 | 4979 ft | 263 kts | 324° |
| 2026-05-07 17:37 | 43.70585 | 1.28145 | 6345 ft | 266 kts | 323° |
| 2026-05-07 17:37 | 43.72163 | 1.26782 | 7671 ft | 271 kts | 336° |
| 2026-05-07 17:37 | 43.73997 | 1.26033 | 8996 ft | 279 kts | 345° |
| 2026-05-07 17:38 | 43.75927 | 1.25422 | 10201 ft | 292 kts | 345° |
| 2026-05-07 17:38 | 43.78029 | 1.24995 | 10982 ft | 319 kts | 355° |
| 2026-05-07 17:38 | 43.80287 | 1.24915 | 12025 ft | 330 kts | 357° |
| 2026-05-07 17:38 | 43.82616 | 1.24861 | 13273 ft | 338 kts | 357° |
| 2026-05-07 17:39 | 43.84984 | 1.24800 | 14408 ft | 344 kts | 357° |
| 2026-05-07 17:39 | 43.87400 | 1.24729 | 15498 ft | 349 kts | 356° |
| 2026-05-07 17:39 | 43.89852 | 1.24650 | 16574 ft | 355 kts | 356° |
| 2026-05-07 17:39 | 43.92340 | 1.24568 | 17634 ft | 361 kts | 356° |
| 2026-05-07 17:40 | 43.94867 | 1.24480 | 18627 ft | 367 kts | 356° |
| 2026-05-07 17:40 | 43.97438 | 1.24392 | 19525 ft | 372 kts | 356° |
| 2026-05-07 17:40 | 44.00053 | 1.24302 | 20414 ft | 378 kts | 356° |
| 2026-05-07 17:40 | 44.02707 | 1.24212 | 21290 ft | 384 kts | 356° |
| 2026-05-07 17:41 | 44.05397 | 1.24119 | 22153 ft | 390 kts | 356° |
| 2026-05-07 17:41 | 44.08129 | 1.24026 | 23014 ft | 396 kts | 356° |
| 2026-05-07 17:41 | 44.10901 | 1.23928 | 23801 ft | 401 kts | 356° |
| 2026-05-07 17:41 | 44.13713 | 1.23830 | 24499 ft | 407 kts | 356° |
| 2026-05-07 17:42 | 44.16560 | 1.23733 | 25163 ft | 412 kts | 356° |
| 2026-05-07 17:42 | 44.19444 | 1.23630 | 25809 ft | 417 kts | 356° |
| 2026-05-07 17:42 | 44.22360 | 1.23524 | 26452 ft | 422 kts | 356° |
| 2026-05-07 17:42 | 44.25314 | 1.23419 | 27066 ft | 427 kts | 356° |
| 2026-05-07 17:43 | 44.28265 | 1.23371 | 27648 ft | 432 kts | 359° |
| 2026-05-07 17:43 | 44.30303 | 1.23482 | 28039 ft | 436 kts | 0° |
| 2026-05-07 17:43 | 44.33345 | 1.23675 | 28610 ft | 440 kts | 0° |
| 2026-05-07 17:43 | 44.36422 | 1.23868 | 29168 ft | 445 kts | 0° |
| 2026-05-07 17:44 | 44.39528 | 1.24051 | 29714 ft | 449 kts | 0° |
| 2026-05-07 17:44 | 44.42672 | 1.24238 | 30223 ft | 454 kts | 0° |
| 2026-05-07 17:44 | 44.45832 | 1.24426 | 30718 ft | 457 kts | 0° |
| 2026-05-07 17:44 | 44.49018 | 1.24616 | 31209 ft | 460 kts | 360° |
| 2026-05-07 17:45 | 44.52211 | 1.24800 | 31785 ft | 459 kts | 360° |
| 2026-05-07 17:45 | 44.55402 | 1.24986 | 32426 ft | 458 kts | 359° |
| 2026-05-07 17:45 | 44.58581 | 1.25170 | 33066 ft | 456 kts | 359° |
| 2026-05-07 17:45 | 44.61746 | 1.25354 | 33705 ft | 455 kts | 359° |
| 2026-05-07 17:46 | 44.64902 | 1.25540 | 34240 ft | 454 kts | 359° |
| 2026-05-07 17:46 | 44.68059 | 1.25727 | 34706 ft | 453 kts | 359° |
| 2026-05-07 17:46 | 44.71208 | 1.25914 | 35168 ft | 453 kts | 359° |
| 2026-05-07 17:46 | 44.74356 | 1.26099 | 35620 ft | 453 kts | 359° |
| 2026-05-07 17:47 | 44.77501 | 1.26288 | 36060 ft | 452 kts | 359° |
| 2026-05-07 17:47 | 44.80643 | 1.26471 | 36475 ft | 452 kts | 359° |
| 2026-05-07 17:47 | 44.83785 | 1.26653 | 36904 ft | 452 kts | 359° |
| 2026-05-07 17:47 | 44.86924 | 1.26844 | 37318 ft | 451 kts | 359° |
| 2026-05-07 17:48 | 44.90062 | 1.27040 | 37703 ft | 451 kts | 359° |
| 2026-05-07 17:48 | 44.93159 | 1.27233 | 37955 ft | 452 kts | 359° |
| 2026-05-07 17:48 | 44.99420 | 1.27597 | 37980 ft | 450 kts | 359° |
| 2026-05-07 17:49 | 45.05672 | 1.27978 | 37967 ft | 449 kts | 359° |
| 2026-05-07 17:49 | 45.11919 | 1.28358 | 37963 ft | 449 kts | 359° |
| 2026-05-07 17:50 | 45.18167 | 1.28747 | 37957 ft | 449 kts | 359° |
| 2026-05-07 17:50 | 45.24414 | 1.29148 | 37950 ft | 449 kts | 359° |
| 2026-05-07 17:51 | 45.30657 | 1.29528 | 37953 ft | 449 kts | 359° |
| 2026-05-07 17:51 | 45.36890 | 1.29898 | 37952 ft | 449 kts | 359° |
| 2026-05-07 17:52 | 45.43125 | 1.30277 | 37960 ft | 449 kts | 359° |
| 2026-05-07 17:52 | 45.49363 | 1.30653 | 37959 ft | 448 kts | 359° |
| 2026-05-07 17:53 | 45.55602 | 1.31036 | 37958 ft | 449 kts | 359° |
| 2026-05-07 17:53 | 45.61834 | 1.31414 | 37962 ft | 448 kts | 359° |
| 2026-05-07 17:54 | 45.68071 | 1.31802 | 37958 ft | 448 kts | 359° |
| 2026-05-07 17:54 | 45.74255 | 1.32174 | 37963 ft | 448 kts | 359° |
| 2026-05-07 17:55 | 45.80484 | 1.32549 | 37966 ft | 448 kts | 359° |
| 2026-05-07 17:55 | 45.86707 | 1.32936 | 37964 ft | 448 kts | 359° |
| 2026-05-07 17:56 | 45.92895 | 1.33323 | 37964 ft | 448 kts | 359° |
| 2026-05-07 17:56 | 45.99118 | 1.33709 | 37970 ft | 448 kts | 359° |
| 2026-05-07 17:57 | 46.04328 | 1.34030 | 37963 ft | 448 kts | 359° |
| 2026-05-07 17:57 | 46.11560 | 1.34477 | 37963 ft | 447 kts | 359° |
| 2026-05-07 17:58 | 46.17777 | 1.34873 | 37976 ft | 447 kts | 359° |
| 2026-05-07 17:58 | 46.23998 | 1.35276 | 37965 ft | 447 kts | 359° |
| 2026-05-07 17:59 | 46.30215 | 1.35657 | 37968 ft | 447 kts | 359° |
| 2026-05-07 17:59 | 46.36430 | 1.36033 | 37982 ft | 447 kts | 359° |
| 2026-05-07 18:00 | 46.42638 | 1.36431 | 37973 ft | 446 kts | 359° |
| 2026-05-07 18:00 | 46.48839 | 1.36837 | 37977 ft | 446 kts | 359° |
| 2026-05-07 18:01 | 46.55042 | 1.37216 | 37973 ft | 446 kts | 359° |
| 2026-05-07 18:01 | 46.61240 | 1.37614 | 37982 ft | 446 kts | 359° |
| 2026-05-07 18:02 | 46.70529 | 1.38215 | 37985 ft | 446 kts | 359° |
| 2026-05-07 18:03 | 46.76726 | 1.38598 | 37986 ft | 445 kts | 359° |
| 2026-05-07 18:03 | 46.82922 | 1.38992 | 37988 ft | 446 kts | 359° |
| 2026-05-07 18:04 | 46.89114 | 1.39382 | 37983 ft | 446 kts | 359° |
| 2026-05-07 18:04 | 46.95307 | 1.39783 | 37990 ft | 445 kts | 359° |
| 2026-05-07 18:05 | 47.01499 | 1.40182 | 37988 ft | 445 kts | 359° |
| 2026-05-07 18:05 | 47.07686 | 1.40577 | 37986 ft | 445 kts | 359° |
| 2026-05-07 18:06 | 47.13872 | 1.40974 | 37988 ft | 445 kts | 359° |
| 2026-05-07 18:06 | 47.20060 | 1.41380 | 38006 ft | 445 kts | 359° |
| 2026-05-07 18:07 | 47.26238 | 1.41778 | 37994 ft | 444 kts | 359° |
| 2026-05-07 18:07 | 47.32417 | 1.42184 | 37990 ft | 444 kts | 359° |
| 2026-05-07 18:08 | 47.38594 | 1.42586 | 37996 ft | 444 kts | 359° |
| 2026-05-07 18:08 | 47.44728 | 1.42986 | 37991 ft | 444 kts | 359° |
| 2026-05-07 18:09 | 47.50900 | 1.43401 | 37992 ft | 444 kts | 359° |
| 2026-05-07 18:09 | 47.57073 | 1.43800 | 37988 ft | 444 kts | 359° |
| 2026-05-07 18:10 | 47.63242 | 1.44208 | 37991 ft | 444 kts | 359° |
| 2026-05-07 18:10 | 47.69411 | 1.44615 | 37988 ft | 444 kts | 359° |
| 2026-05-07 18:11 | 47.75576 | 1.45020 | 37991 ft | 444 kts | 359° |
| 2026-05-07 18:11 | 47.81748 | 1.45431 | 37996 ft | 444 kts | 359° |
| 2026-05-07 18:12 | 47.87922 | 1.45837 | 37991 ft | 444 kts | 359° |
| 2026-05-07 18:12 | 47.94097 | 1.46251 | 37992 ft | 444 kts | 359° |
| 2026-05-07 18:13 | 48.00267 | 1.46671 | 37995 ft | 444 kts | 359° |
| 2026-05-07 18:13 | 48.06441 | 1.47089 | 37993 ft | 444 kts | 360° |
| 2026-05-07 18:14 | 48.12603 | 1.47500 | 37994 ft | 443 kts | 360° |
| 2026-05-07 18:14 | 48.18768 | 1.47915 | 37994 ft | 443 kts | 359° |
| 2026-05-07 18:15 | 48.24932 | 1.48335 | 38001 ft | 443 kts | 359° |
| 2026-05-07 18:15 | 48.31092 | 1.48746 | 38003 ft | 443 kts | 359° |
| 2026-05-07 18:16 | 48.37246 | 1.49167 | 38002 ft | 443 kts | 360° |
| 2026-05-07 18:16 | 48.43400 | 1.49585 | 38019 ft | 443 kts | 359° |
| 2026-05-07 18:17 | 48.49561 | 1.49998 | 38013 ft | 443 kts | 360° |
| 2026-05-07 18:17 | 48.55681 | 1.51005 | 38007 ft | 448 kts | 16° |
| 2026-05-07 18:18 | 48.61329 | 1.55091 | 38013 ft | 451 kts | 26° |
| 2026-05-07 18:18 | 48.66876 | 1.59422 | 38024 ft | 451 kts | 25° |
| 2026-05-07 18:19 | 48.72512 | 1.63700 | 38018 ft | 451 kts | 25° |
| 2026-05-07 18:19 | 48.78084 | 1.67937 | 38021 ft | 451 kts | 25° |
| 2026-05-07 18:20 | 48.83743 | 1.72181 | 38021 ft | 451 kts | 25° |
| 2026-05-07 18:20 | 48.89311 | 1.76427 | 38016 ft | 451 kts | 25° |
| 2026-05-07 18:21 | 48.94911 | 1.80711 | 38029 ft | 450 kts | 25° |
| 2026-05-07 18:21 | 49.00506 | 1.85007 | 38026 ft | 450 kts | 25° |
| 2026-05-07 18:22 | 49.06101 | 1.89308 | 38022 ft | 451 kts | 25° |
| 2026-05-07 18:22 | 49.11702 | 1.93598 | 38025 ft | 450 kts | 25° |
| 2026-05-07 18:23 | 49.17282 | 1.97915 | 38024 ft | 450 kts | 25° |
| 2026-05-07 18:23 | 49.22875 | 2.02220 | 38040 ft | 450 kts | 24° |
| 2026-05-07 18:24 | 49.28465 | 2.06516 | 38045 ft | 449 kts | 25° |
| 2026-05-07 18:24 | 49.34034 | 2.10869 | 38053 ft | 449 kts | 25° |
| 2026-05-07 18:25 | 49.39614 | 2.15197 | 38054 ft | 449 kts | 25° |
| 2026-05-07 18:25 | 49.45185 | 2.19568 | 38054 ft | 450 kts | 25° |
| 2026-05-07 18:26 | 49.50750 | 2.23956 | 38060 ft | 450 kts | 25° |
| 2026-05-07 18:26 | 49.56321 | 2.28334 | 38053 ft | 449 kts | 25° |
| 2026-05-07 18:27 | 49.61890 | 2.32711 | 38051 ft | 449 kts | 25° |
| 2026-05-07 18:27 | 49.67456 | 2.37107 | 38052 ft | 449 kts | 25° |
| 2026-05-07 18:28 | 49.73023 | 2.41506 | 38062 ft | 449 kts | 25° |
| 2026-05-07 18:28 | 49.78585 | 2.45903 | 38054 ft | 449 kts | 25° |
| 2026-05-07 18:29 | 49.84140 | 2.50327 | 38053 ft | 449 kts | 25° |
| 2026-05-07 18:29 | 49.89665 | 2.54696 | 38056 ft | 449 kts | 25° |
| 2026-05-07 18:30 | 49.95223 | 2.59117 | 38057 ft | 449 kts | 25° |
| 2026-05-07 18:30 | 50.00777 | 2.63565 | 38054 ft | 449 kts | 25° |
| 2026-05-07 18:31 | 50.06332 | 2.68029 | 38055 ft | 450 kts | 26° |
| 2026-05-07 18:31 | 50.10995 | 2.71784 | 38054 ft | 450 kts | 26° |
| 2026-05-07 18:32 | 50.16521 | 2.76243 | 38066 ft | 450 kts | 26° |
| 2026-05-07 18:32 | 50.22071 | 2.80734 | 38023 ft | 446 kts | 26° |
| 2026-05-07 18:32 | 50.24820 | 2.82966 | 37696 ft | 446 kts | 26° |
| 2026-05-07 18:33 | 50.27571 | 2.85201 | 37404 ft | 446 kts | 26° |
| 2026-05-07 18:33 | 50.30328 | 2.87441 | 37125 ft | 446 kts | 26° |
| 2026-05-07 18:33 | 50.33080 | 2.89681 | 36870 ft | 446 kts | 26° |
| 2026-05-07 18:33 | 50.35828 | 2.91921 | 36613 ft | 446 kts | 26° |
| 2026-05-07 18:34 | 50.38581 | 2.94167 | 36358 ft | 445 kts | 25° |
| 2026-05-07 18:34 | 50.41326 | 2.96408 | 36097 ft | 445 kts | 25° |
| 2026-05-07 18:34 | 50.44072 | 2.98672 | 35849 ft | 445 kts | 26° |
| 2026-05-07 18:34 | 50.46797 | 3.00968 | 35598 ft | 445 kts | 26° |
| 2026-05-07 18:35 | 50.49520 | 3.03275 | 35348 ft | 443 kts | 26° |
| 2026-05-07 18:35 | 50.52224 | 3.05568 | 35101 ft | 441 kts | 26° |
| 2026-05-07 18:35 | 50.54915 | 3.07845 | 34785 ft | 437 kts | 26° |
| 2026-05-07 18:35 | 50.57586 | 3.10103 | 34292 ft | 435 kts | 26° |
| 2026-05-07 18:36 | 50.60244 | 3.12351 | 33726 ft | 431 kts | 26° |
| 2026-05-07 18:36 | 50.62867 | 3.14574 | 33200 ft | 426 kts | 25° |
| 2026-05-07 18:36 | 50.65461 | 3.16778 | 32634 ft | 421 kts | 25° |
| 2026-05-07 18:36 | 50.68023 | 3.18955 | 32066 ft | 417 kts | 25° |
| 2026-05-07 18:37 | 50.70563 | 3.21116 | 31483 ft | 413 kts | 25° |
| 2026-05-07 18:37 | 50.73082 | 3.23241 | 30940 ft | 409 kts | 25° |
| 2026-05-07 18:37 | 50.75588 | 3.25321 | 30391 ft | 405 kts | 25° |
| 2026-05-07 18:37 | 50.78072 | 3.27381 | 29805 ft | 401 kts | 25° |
| 2026-05-07 18:38 | 50.80530 | 3.29425 | 29186 ft | 397 kts | 25° |
| 2026-05-07 18:38 | 50.82962 | 3.31452 | 28594 ft | 394 kts | 25° |
| 2026-05-07 18:38 | 50.85373 | 3.33468 | 28000 ft | 390 kts | 25° |
| 2026-05-07 18:38 | 50.87762 | 3.35467 | 27423 ft | 387 kts | 25° |
| 2026-05-07 18:39 | 50.90175 | 3.37308 | 26858 ft | 383 kts | 22° |
| 2026-05-07 18:39 | 50.92581 | 3.39056 | 26317 ft | 379 kts | 22° |
| 2026-05-07 18:39 | 50.94967 | 3.40790 | 25779 ft | 376 kts | 22° |
| 2026-05-07 18:39 | 50.97334 | 3.42520 | 25249 ft | 373 kts | 22° |
| 2026-05-07 18:40 | 50.99678 | 3.44243 | 24729 ft | 370 kts | 22° |
| 2026-05-07 18:40 | 51.02002 | 3.45952 | 24216 ft | 367 kts | 22° |
| 2026-05-07 18:40 | 51.04316 | 3.47658 | 23717 ft | 365 kts | 23° |
| 2026-05-07 18:40 | 51.06572 | 3.49325 | 23159 ft | 362 kts | 23° |
| 2026-05-07 18:41 | 51.08848 | 3.51009 | 22608 ft | 359 kts | 23° |
| 2026-05-07 18:41 | 51.11127 | 3.52699 | 22173 ft | 355 kts | 23° |
| 2026-05-07 18:41 | 51.13337 | 3.54338 | 22063 ft | 355 kts | 23° |
| 2026-05-07 18:41 | 51.15579 | 3.56000 | 22056 ft | 355 kts | 23° |
| 2026-05-07 18:42 | 51.17817 | 3.57669 | 22073 ft | 355 kts | 23° |
| 2026-05-07 18:42 | 51.20088 | 3.59357 | 22093 ft | 356 kts | 23° |
| 2026-05-07 18:42 | 51.22300 | 3.61000 | 22084 ft | 356 kts | 23° |
| 2026-05-07 18:42 | 51.24516 | 3.62651 | 21790 ft | 348 kts | 23° |
| 2026-05-07 18:43 | 51.26708 | 3.64288 | 21218 ft | 347 kts | 23° |
| 2026-05-07 18:43 | 51.28888 | 3.65916 | 20685 ft | 345 kts | 23° |
| 2026-05-07 18:43 | 51.31059 | 3.67538 | 20167 ft | 343 kts | 24° |
| 2026-05-07 18:43 | 51.33213 | 3.69150 | 19685 ft | 340 kts | 24° |
| 2026-05-07 18:44 | 51.35347 | 3.70748 | 19211 ft | 337 kts | 24° |
| 2026-05-07 18:44 | 51.37465 | 3.72336 | 18734 ft | 335 kts | 24° |
| 2026-05-07 18:44 | 51.39562 | 3.73912 | 18270 ft | 332 kts | 24° |
| 2026-05-07 18:44 | 51.41645 | 3.75480 | 17745 ft | 330 kts | 24° |
| 2026-05-07 18:45 | 51.43714 | 3.77035 | 17240 ft | 327 kts | 24° |
| 2026-05-07 18:45 | 51.45766 | 3.78580 | 16741 ft | 325 kts | 24° |
| 2026-05-07 18:45 | 51.47803 | 3.80114 | 16254 ft | 323 kts | 24° |